sensor_id;sensor_type;location;lat;lon;timestamp;P1;durP1;ratioP1;P2;durP2;ratioP2
48925;SDS011;39838;59.938;30.642;2022-09-09T00:02:21;14.88;;;6.22;;
48925;SDS011;39838;59.938;30.642;2022-09-09T00:04:53;11.90;;;6.97;;
48925;SDS011;39838;59.938;30.642;2022-09-09T00:07:32;14.45;;;5.50;;
48925;SDS011;39838;59.938;30.642;2022-09-09T00:10:11;9.07;;;5.00;;
48925;SDS011;39838;59.938;30.642;2022-09-09T00:12:51;11.93;;;6.15;;
48925;SDS011;39838;59.938;30.642;2022-09-09T00:15:23;17.70;;;8.05;;
48925;SDS011;39838;59.938;30.642;2022-09-09T00:17:56;12.13;;;6.55;;
48925;SDS011;39838;59.938;30.642;2022-09-09T00:20:32;17.58;;;7.25;;
48925;SDS011;39838;59.938;30.642;2022-09-09T00:23:04;14.55;;;8.30;;
48925;SDS011;39838;59.938;30.642;2022-09-09T00:25:40;18.63;;;8.65;;
48925;SDS011;39838;59.938;30.642;2022-09-09T00:28:18;16.20;;;8.27;;
48925;SDS011;39838;59.938;30.642;2022-09-09T00:30:46;16.15;;;7.75;;
48925;SDS011;39838;59.938;30.642;2022-09-09T00:33:15;14.30;;;7.00;;
48925;SDS011;39838;59.938;30.642;2022-09-09T00:35:48;12.65;;;6.55;;
48925;SDS011;39838;59.938;30.642;2022-09-09T00:38:18;14.80;;;8.13;;
48925;SDS011;39838;59.938;30.642;2022-09-09T00:40:51;17.30;;;8.45;;
48925;SDS011;39838;59.938;30.642;2022-09-09T00:43:25;15.90;;;7.80;;
48925;SDS011;39838;59.938;30.642;2022-09-09T00:49:00;17.90;;;8.25;;
48925;SDS011;39838;59.938;30.642;2022-09-09T00:51:39;15.07;;;7.22;;
48925;SDS011;39838;59.938;30.642;2022-09-09T00:54:19;13.63;;;7.30;;
48925;SDS011;39838;59.938;30.642;2022-09-09T00:57:04;15.27;;;7.47;;
48925;SDS011;39838;59.938;30.642;2022-09-09T00:59:45;15.02;;;7.10;;
48925;SDS011;39838;59.938;30.642;2022-09-09T01:02:21;15.20;;;7.25;;
48925;SDS011;39838;59.938;30.642;2022-09-09T01:04:54;15.02;;;7.30;;
48925;SDS011;39838;59.938;30.642;2022-09-09T01:07:28;11.30;;;6.75;;
48925;SDS011;39838;59.938;30.642;2022-09-09T01:09:56;14.35;;;7.55;;
48925;SDS011;39838;59.938;30.642;2022-09-09T01:12:25;14.60;;;7.55;;
48925;SDS011;39838;59.938;30.642;2022-09-09T01:15:00;13.52;;;7.68;;
48925;SDS011;39838;59.938;30.642;2022-09-09T01:17:41;15.82;;;7.65;;
48925;SDS011;39838;59.938;30.642;2022-09-09T01:20:23;15.50;;;7.70;;
48925;SDS011;39838;59.938;30.642;2022-09-09T01:23:04;16.15;;;8.20;;
48925;SDS011;39838;59.938;30.642;2022-09-09T01:26:07;12.63;;;7.10;;
48925;SDS011;39838;59.938;30.642;2022-09-09T01:28:40;18.15;;;8.57;;
48925;SDS011;39838;59.938;30.642;2022-09-09T01:31:09;12.23;;;7.57;;
48925;SDS011;39838;59.938;30.642;2022-09-09T01:33:40;9.75;;;5.15;;
48925;SDS011;39838;59.938;30.642;2022-09-09T01:36:08;10.07;;;5.50;;
48925;SDS011;39838;59.938;30.642;2022-09-09T01:38:38;16.73;;;6.53;;
48925;SDS011;39838;59.938;30.642;2022-09-09T01:41:07;12.45;;;5.90;;
48925;SDS011;39838;59.938;30.642;2022-09-09T01:43:34;13.00;;;6.95;;
48925;SDS011;39838;59.938;30.642;2022-09-09T01:46:02;11.80;;;6.85;;
48925;SDS011;39838;59.938;30.642;2022-09-09T01:48:30;15.35;;;7.28;;
48925;SDS011;39838;59.938;30.642;2022-09-09T01:50:58;18.38;;;6.80;;
48925;SDS011;39838;59.938;30.642;2022-09-09T01:53:25;11.57;;;6.95;;
48925;SDS011;39838;59.938;30.642;2022-09-09T01:55:55;15.90;;;8.07;;
48925;SDS011;39838;59.938;30.642;2022-09-09T01:58:33;16.45;;;7.90;;
48925;SDS011;39838;59.938;30.642;2022-09-09T02:01:11;14.85;;;7.90;;
48925;SDS011;39838;59.938;30.642;2022-09-09T02:03:44;12.68;;;7.25;;
48925;SDS011;39838;59.938;30.642;2022-09-09T02:06:21;15.48;;;7.72;;
48925;SDS011;39838;59.938;30.642;2022-09-09T02:08:54;12.70;;;7.78;;
48925;SDS011;39838;59.938;30.642;2022-09-09T02:11:24;15.77;;;7.25;;
48925;SDS011;39838;59.938;30.642;2022-09-09T02:13:54;13.25;;;7.63;;
48925;SDS011;39838;59.938;30.642;2022-09-09T02:16:24;17.23;;;7.43;;
48925;SDS011;39838;59.938;30.642;2022-09-09T02:18:56;15.02;;;7.60;;
48925;SDS011;39838;59.938;30.642;2022-09-09T02:21:28;15.45;;;7.82;;
48925;SDS011;39838;59.938;30.642;2022-09-09T02:23:57;16.58;;;7.60;;
48925;SDS011;39838;59.938;30.642;2022-09-09T02:26:29;16.48;;;8.40;;
48925;SDS011;39838;59.938;30.642;2022-09-09T02:29:01;17.98;;;8.73;;
48925;SDS011;39838;59.938;30.642;2022-09-09T02:31:30;18.73;;;8.30;;
48925;SDS011;39838;59.938;30.642;2022-09-09T02:34:01;17.73;;;9.02;;
48925;SDS011;39838;59.938;30.642;2022-09-09T02:36:30;16.23;;;9.32;;
48925;SDS011;39838;59.938;30.642;2022-09-09T02:39:00;16.67;;;8.70;;
48925;SDS011;39838;59.938;30.642;2022-09-09T02:41:28;19.50;;;9.38;;
48925;SDS011;39838;59.938;30.642;2022-09-09T02:43:58;18.15;;;9.55;;
48925;SDS011;39838;59.938;30.642;2022-09-09T02:46:35;15.65;;;8.23;;
48925;SDS011;39838;59.938;30.642;2022-09-09T02:49:11;13.48;;;8.25;;
48925;SDS011;39838;59.938;30.642;2022-09-09T02:51:46;15.75;;;8.93;;
48925;SDS011;39838;59.938;30.642;2022-09-09T02:54:26;18.98;;;8.30;;
48925;SDS011;39838;59.938;30.642;2022-09-09T02:56:56;15.07;;;8.82;;
48925;SDS011;39838;59.938;30.642;2022-09-09T02:59:28;17.25;;;9.23;;
48925;SDS011;39838;59.938;30.642;2022-09-09T03:01:57;18.08;;;8.68;;
48925;SDS011;39838;59.938;30.642;2022-09-09T03:04:24;19.23;;;9.65;;
48925;SDS011;39838;59.938;30.642;2022-09-09T03:06:51;24.15;;;14.45;;
48925;SDS011;39838;59.938;30.642;2022-09-09T03:09:19;18.17;;;9.25;;
48925;SDS011;39838;59.938;30.642;2022-09-09T03:11:46;19.95;;;9.30;;
48925;SDS011;39838;59.938;30.642;2022-09-09T03:14:14;18.80;;;8.77;;
48925;SDS011;39838;59.938;30.642;2022-09-09T03:16:41;16.75;;;9.52;;
48925;SDS011;39838;59.938;30.642;2022-09-09T03:19:10;16.95;;;9.25;;
48925;SDS011;39838;59.938;30.642;2022-09-09T03:21:37;16.35;;;9.15;;
48925;SDS011;39838;59.938;30.642;2022-09-09T03:24:04;17.77;;;8.80;;
48925;SDS011;39838;59.938;30.642;2022-09-09T03:26:32;17.13;;;9.00;;
48925;SDS011;39838;59.938;30.642;2022-09-09T03:28:59;15.30;;;8.32;;
48925;SDS011;39838;59.938;30.642;2022-09-09T03:31:26;17.13;;;8.35;;
48925;SDS011;39838;59.938;30.642;2022-09-09T03:33:55;19.10;;;8.88;;
48925;SDS011;39838;59.938;30.642;2022-09-09T03:36:24;15.35;;;8.95;;
48925;SDS011;39838;59.938;30.642;2022-09-09T03:38:53;17.70;;;8.98;;
48925;SDS011;39838;59.938;30.642;2022-09-09T03:41:20;17.30;;;9.23;;
48925;SDS011;39838;59.938;30.642;2022-09-09T03:43:49;18.17;;;8.43;;
48925;SDS011;39838;59.938;30.642;2022-09-09T03:46:17;20.73;;;8.82;;
48925;SDS011;39838;59.938;30.642;2022-09-09T03:48:44;12.07;;;7.90;;
48925;SDS011;39838;59.938;30.642;2022-09-09T03:51:11;14.32;;;8.05;;
48925;SDS011;39838;59.938;30.642;2022-09-09T03:53:40;17.95;;;8.73;;
48925;SDS011;39838;59.938;30.642;2022-09-09T03:56:08;19.08;;;8.75;;
48925;SDS011;39838;59.938;30.642;2022-09-09T03:58:35;14.15;;;8.35;;
48925;SDS011;39838;59.938;30.642;2022-09-09T04:01:04;20.77;;;9.32;;
48925;SDS011;39838;59.938;30.642;2022-09-09T04:03:33;22.55;;;10.20;;
48925;SDS011;39838;59.938;30.642;2022-09-09T04:06:01;24.02;;;10.20;;
48925;SDS011;39838;59.938;30.642;2022-09-09T04:08:30;24.23;;;10.32;;
48925;SDS011;39838;59.938;30.642;2022-09-09T04:10:59;18.52;;;9.95;;
48925;SDS011;39838;59.938;30.642;2022-09-09T04:13:31;18.35;;;10.25;;
48925;SDS011;39838;59.938;30.642;2022-09-09T04:15:59;22.08;;;9.82;;
48925;SDS011;39838;59.938;30.642;2022-09-09T04:18:28;29.52;;;10.20;;
48925;SDS011;39838;59.938;30.642;2022-09-09T04:20:56;16.73;;;9.27;;
48925;SDS011;39838;59.938;30.642;2022-09-09T04:23:23;17.98;;;9.35;;
48925;SDS011;39838;59.938;30.642;2022-09-09T04:25:52;16.52;;;8.70;;
48925;SDS011;39838;59.938;30.642;2022-09-09T04:28:22;15.88;;;9.38;;
48925;SDS011;39838;59.938;30.642;2022-09-09T04:30:51;14.80;;;9.13;;
48925;SDS011;39838;59.938;30.642;2022-09-09T04:33:18;17.83;;;9.32;;
48925;SDS011;39838;59.938;30.642;2022-09-09T04:35:45;18.33;;;8.98;;
48925;SDS011;39838;59.938;30.642;2022-09-09T04:38:14;16.02;;;9.25;;
48925;SDS011;39838;59.938;30.642;2022-09-09T04:40:42;19.55;;;9.35;;
48925;SDS011;39838;59.938;30.642;2022-09-09T04:43:09;20.73;;;9.25;;
48925;SDS011;39838;59.938;30.642;2022-09-09T04:45:38;20.98;;;9.35;;
48925;SDS011;39838;59.938;30.642;2022-09-09T04:48:06;19.60;;;8.75;;
48925;SDS011;39838;59.938;30.642;2022-09-09T04:50:34;21.67;;;9.15;;
48925;SDS011;39838;59.938;30.642;2022-09-09T04:53:02;20.98;;;9.55;;
48925;SDS011;39838;59.938;30.642;2022-09-09T04:55:30;18.67;;;9.43;;
48925;SDS011;39838;59.938;30.642;2022-09-09T04:57:57;21.67;;;9.43;;
48925;SDS011;39838;59.938;30.642;2022-09-09T05:00:24;19.30;;;8.80;;
48925;SDS011;39838;59.938;30.642;2022-09-09T05:02:53;21.20;;;9.48;;
48925;SDS011;39838;59.938;30.642;2022-09-09T05:05:20;18.92;;;8.70;;
48925;SDS011;39838;59.938;30.642;2022-09-09T05:07:47;19.10;;;8.90;;
48925;SDS011;39838;59.938;30.642;2022-09-09T05:10:14;17.10;;;9.32;;
48925;SDS011;39838;59.938;30.642;2022-09-09T05:12:51;27.45;;;9.25;;
48925;SDS011;39838;59.938;30.642;2022-09-09T05:15:19;18.30;;;9.60;;
48925;SDS011;39838;59.938;30.642;2022-09-09T05:17:47;17.33;;;8.95;;
48925;SDS011;39838;59.938;30.642;2022-09-09T05:20:15;16.38;;;8.75;;
48925;SDS011;39838;59.938;30.642;2022-09-09T05:22:42;21.85;;;9.93;;
48925;SDS011;39838;59.938;30.642;2022-09-09T05:25:09;19.77;;;8.98;;
48925;SDS011;39838;59.938;30.642;2022-09-09T05:27:36;17.40;;;9.07;;
48925;SDS011;39838;59.938;30.642;2022-09-09T05:30:04;18.88;;;9.63;;
48925;SDS011;39838;59.938;30.642;2022-09-09T05:32:32;21.48;;;9.88;;
48925;SDS011;39838;59.938;30.642;2022-09-09T05:34:59;18.88;;;9.65;;
48925;SDS011;39838;59.938;30.642;2022-09-09T05:37:29;20.15;;;10.13;;
48925;SDS011;39838;59.938;30.642;2022-09-09T05:39:57;21.75;;;9.38;;
48925;SDS011;39838;59.938;30.642;2022-09-09T05:42:29;18.10;;;9.57;;
48925;SDS011;39838;59.938;30.642;2022-09-09T05:44:57;22.92;;;8.80;;
48925;SDS011;39838;59.938;30.642;2022-09-09T05:47:24;24.55;;;8.93;;
48925;SDS011;39838;59.938;30.642;2022-09-09T05:49:53;20.35;;;9.55;;
48925;SDS011;39838;59.938;30.642;2022-09-09T05:52:20;19.27;;;10.05;;
48925;SDS011;39838;59.938;30.642;2022-09-09T05:54:50;21.95;;;9.98;;
48925;SDS011;39838;59.938;30.642;2022-09-09T05:57:17;18.05;;;9.27;;
48925;SDS011;39838;59.938;30.642;2022-09-09T05:59:44;18.73;;;8.73;;
48925;SDS011;39838;59.938;30.642;2022-09-09T06:02:11;19.17;;;9.18;;
48925;SDS011;39838;59.938;30.642;2022-09-09T06:04:39;19.58;;;9.20;;
48925;SDS011;39838;59.938;30.642;2022-09-09T06:07:07;18.63;;;10.10;;
48925;SDS011;39838;59.938;30.642;2022-09-09T06:09:34;19.80;;;9.93;;
48925;SDS011;39838;59.938;30.642;2022-09-09T06:12:02;20.27;;;8.82;;
48925;SDS011;39838;59.938;30.642;2022-09-09T06:14:30;16.20;;;8.98;;
48925;SDS011;39838;59.938;30.642;2022-09-09T06:16:57;19.33;;;8.25;;
48925;SDS011;39838;59.938;30.642;2022-09-09T06:19:24;18.05;;;8.75;;
48925;SDS011;39838;59.938;30.642;2022-09-09T06:21:52;18.67;;;8.15;;
48925;SDS011;39838;59.938;30.642;2022-09-09T06:24:20;16.33;;;8.50;;
48925;SDS011;39838;59.938;30.642;2022-09-09T06:26:47;17.05;;;8.00;;
48925;SDS011;39838;59.938;30.642;2022-09-09T06:29:16;16.13;;;7.20;;
48925;SDS011;39838;59.938;30.642;2022-09-09T06:31:43;16.75;;;7.82;;
48925;SDS011;39838;59.938;30.642;2022-09-09T06:34:10;16.48;;;7.45;;
48925;SDS011;39838;59.938;30.642;2022-09-09T06:36:37;16.13;;;7.75;;
48925;SDS011;39838;59.938;30.642;2022-09-09T06:39:05;12.38;;;8.23;;
48925;SDS011;39838;59.938;30.642;2022-09-09T06:41:34;18.58;;;7.65;;
48925;SDS011;39838;59.938;30.642;2022-09-09T06:44:02;13.60;;;7.25;;
48925;SDS011;39838;59.938;30.642;2022-09-09T06:46:31;15.10;;;7.93;;
48925;SDS011;39838;59.938;30.642;2022-09-09T06:49:00;10.45;;;7.15;;
48925;SDS011;39838;59.938;30.642;2022-09-09T06:51:28;15.20;;;7.38;;
48925;SDS011;39838;59.938;30.642;2022-09-09T06:53:57;12.77;;;7.25;;
48925;SDS011;39838;59.938;30.642;2022-09-09T06:56:25;13.02;;;7.28;;
48925;SDS011;39838;59.938;30.642;2022-09-09T06:58:54;17.75;;;6.03;;
48925;SDS011;39838;59.938;30.642;2022-09-09T07:01:24;17.33;;;6.35;;
48925;SDS011;39838;59.938;30.642;2022-09-09T07:03:54;16.20;;;6.40;;
48925;SDS011;39838;59.938;30.642;2022-09-09T07:06:24;9.65;;;5.65;;
48925;SDS011;39838;59.938;30.642;2022-09-09T07:08:53;17.23;;;7.05;;
48925;SDS011;39838;59.938;30.642;2022-09-09T07:11:21;14.32;;;6.63;;
48925;SDS011;39838;59.938;30.642;2022-09-09T07:13:51;10.50;;;5.32;;
48925;SDS011;39838;59.938;30.642;2022-09-09T07:16:18;8.65;;;3.70;;
48925;SDS011;39838;59.938;30.642;2022-09-09T07:18:48;10.40;;;4.53;;
48925;SDS011;39838;59.938;30.642;2022-09-09T07:21:17;12.38;;;4.50;;
48925;SDS011;39838;59.938;30.642;2022-09-09T07:23:46;5.97;;;3.40;;
48925;SDS011;39838;59.938;30.642;2022-09-09T07:26:14;6.72;;;3.50;;
48925;SDS011;39838;59.938;30.642;2022-09-09T07:28:42;5.82;;;3.63;;
48925;SDS011;39838;59.938;30.642;2022-09-09T07:31:12;8.73;;;3.90;;
48925;SDS011;39838;59.938;30.642;2022-09-09T07:33:40;8.57;;;3.50;;
48925;SDS011;39838;59.938;30.642;2022-09-09T07:36:08;6.30;;;3.33;;
48925;SDS011;39838;59.938;30.642;2022-09-09T07:38:39;4.78;;;3.20;;
48925;SDS011;39838;59.938;30.642;2022-09-09T07:41:06;5.85;;;2.83;;
48925;SDS011;39838;59.938;30.642;2022-09-09T07:43:37;8.50;;;3.15;;
48925;SDS011;39838;59.938;30.642;2022-09-09T07:46:05;7.95;;;3.17;;
48925;SDS011;39838;59.938;30.642;2022-09-09T07:48:33;6.28;;;3.38;;
48925;SDS011;39838;59.938;30.642;2022-09-09T07:51:07;4.47;;;2.92;;
48925;SDS011;39838;59.938;30.642;2022-09-09T07:53:36;4.15;;;2.85;;
48925;SDS011;39838;59.938;30.642;2022-09-09T07:56:06;5.50;;;2.88;;
48925;SDS011;39838;59.938;30.642;2022-09-09T07:58:35;4.78;;;3.10;;
48925;SDS011;39838;59.938;30.642;2022-09-09T08:01:06;5.60;;;3.00;;
48925;SDS011;39838;59.938;30.642;2022-09-09T08:03:34;4.40;;;2.55;;
48925;SDS011;39838;59.938;30.642;2022-09-09T08:06:02;6.63;;;2.80;;
48925;SDS011;39838;59.938;30.642;2022-09-09T08:08:31;4.65;;;2.67;;
48925;SDS011;39838;59.938;30.642;2022-09-09T08:11:03;5.13;;;2.80;;
48925;SDS011;39838;59.938;30.642;2022-09-09T08:13:33;4.73;;;2.90;;
48925;SDS011;39838;59.938;30.642;2022-09-09T08:16:04;3.70;;;2.72;;
48925;SDS011;39838;59.938;30.642;2022-09-09T08:18:32;6.28;;;2.95;;
48925;SDS011;39838;59.938;30.642;2022-09-09T08:21:04;4.40;;;2.90;;
48925;SDS011;39838;59.938;30.642;2022-09-09T08:23:33;5.03;;;2.80;;
48925;SDS011;39838;59.938;30.642;2022-09-09T08:26:06;5.00;;;3.00;;
48925;SDS011;39838;59.938;30.642;2022-09-09T08:31:07;6.00;;;2.70;;
48925;SDS011;39838;59.938;30.642;2022-09-09T08:33:35;4.63;;;2.80;;
48925;SDS011;39838;59.938;30.642;2022-09-09T08:36:04;5.68;;;2.75;;
48925;SDS011;39838;59.938;30.642;2022-09-09T08:38:32;7.95;;;3.50;;
48925;SDS011;39838;59.938;30.642;2022-09-09T08:41:03;6.22;;;3.55;;
48925;SDS011;39838;59.938;30.642;2022-09-09T08:43:43;7.22;;;3.30;;
48925;SDS011;39838;59.938;30.642;2022-09-09T08:46:14;7.00;;;3.47;;
48925;SDS011;39838;59.938;30.642;2022-09-09T08:48:50;6.75;;;3.47;;
48925;SDS011;39838;59.938;30.642;2022-09-09T08:51:24;9.48;;;3.63;;
48925;SDS011;39838;59.938;30.642;2022-09-09T08:53:53;7.28;;;3.10;;
48925;SDS011;39838;59.938;30.642;2022-09-09T08:56:26;8.20;;;3.65;;
48925;SDS011;39838;59.938;30.642;2022-09-09T08:58:58;10.57;;;3.65;;
48925;SDS011;39838;59.938;30.642;2022-09-09T09:01:32;7.20;;;3.30;;
48925;SDS011;39838;59.938;30.642;2022-09-09T09:04:07;7.22;;;3.33;;
48925;SDS011;39838;59.938;30.642;2022-09-09T09:06:45;8.00;;;3.45;;
48925;SDS011;39838;59.938;30.642;2022-09-09T09:09:22;9.18;;;3.58;;
48925;SDS011;39838;59.938;30.642;2022-09-09T09:11:59;7.78;;;3.45;;
48925;SDS011;39838;59.938;30.642;2022-09-09T09:14:28;7.32;;;3.17;;
48925;SDS011;39838;59.938;30.642;2022-09-09T09:17:00;7.82;;;3.40;;
48925;SDS011;39838;59.938;30.642;2022-09-09T09:19:28;4.25;;;3.15;;
48925;SDS011;39838;59.938;30.642;2022-09-09T09:22:00;6.75;;;3.20;;
48925;SDS011;39838;59.938;30.642;2022-09-09T09:24:34;5.65;;;3.22;;
48925;SDS011;39838;59.938;30.642;2022-09-09T09:27:13;4.40;;;2.88;;
48925;SDS011;39838;59.938;30.642;2022-09-09T09:29:42;5.10;;;3.00;;
48925;SDS011;39838;59.938;30.642;2022-09-09T09:32:11;5.03;;;2.60;;
48925;SDS011;39838;59.938;30.642;2022-09-09T09:34:47;6.63;;;3.10;;
48925;SDS011;39838;59.938;30.642;2022-09-09T09:37:16;5.05;;;3.00;;
48925;SDS011;39838;59.938;30.642;2022-09-09T09:39:47;4.60;;;2.92;;
48925;SDS011;39838;59.938;30.642;2022-09-09T09:42:16;4.85;;;2.63;;
48925;SDS011;39838;59.938;30.642;2022-09-09T09:44:45;6.75;;;2.65;;
48925;SDS011;39838;59.938;30.642;2022-09-09T09:47:13;7.50;;;2.70;;
48925;SDS011;39838;59.938;30.642;2022-09-09T09:49:50;6.70;;;2.90;;
48925;SDS011;39838;59.938;30.642;2022-09-09T09:52:21;10.25;;;2.92;;
48925;SDS011;39838;59.938;30.642;2022-09-09T09:54:50;5.38;;;2.60;;
48925;SDS011;39838;59.938;30.642;2022-09-09T09:57:22;7.93;;;2.80;;
48925;SDS011;39838;59.938;30.642;2022-09-09T10:00:00;5.65;;;2.78;;
48925;SDS011;39838;59.938;30.642;2022-09-09T10:02:37;6.00;;;2.80;;
48925;SDS011;39838;59.938;30.642;2022-09-09T10:05:08;4.82;;;2.55;;
48925;SDS011;39838;59.938;30.642;2022-09-09T10:07:40;6.53;;;2.65;;
48925;SDS011;39838;59.938;30.642;2022-09-09T10:10:10;7.30;;;2.50;;
48925;SDS011;39838;59.938;30.642;2022-09-09T10:12:45;4.25;;;2.35;;
48925;SDS011;39838;59.938;30.642;2022-09-09T10:15:35;5.68;;;2.85;;
48925;SDS011;39838;59.938;30.642;2022-09-09T10:18:15;3.80;;;2.42;;
48925;SDS011;39838;59.938;30.642;2022-09-09T10:20:57;4.93;;;2.20;;
48925;SDS011;39838;59.938;30.642;2022-09-09T10:23:39;5.97;;;2.33;;
48925;SDS011;39838;59.938;30.642;2022-09-09T10:26:26;5.80;;;2.10;;
48925;SDS011;39838;59.938;30.642;2022-09-09T10:29:14;3.15;;;2.00;;
48925;SDS011;39838;59.938;30.642;2022-09-09T10:31:51;4.22;;;2.50;;
48925;SDS011;39838;59.938;30.642;2022-09-09T10:34:32;8.00;;;3.05;;
48925;SDS011;39838;59.938;30.642;2022-09-09T10:37:16;3.67;;;2.30;;
48925;SDS011;39838;59.938;30.642;2022-09-09T10:39:55;6.32;;;2.40;;
48925;SDS011;39838;59.938;30.642;2022-09-09T10:42:31;6.75;;;2.20;;
48925;SDS011;39838;59.938;30.642;2022-09-09T10:45:04;5.68;;;2.10;;
48925;SDS011;39838;59.938;30.642;2022-09-09T10:47:55;4.07;;;1.90;;
48925;SDS011;39838;59.938;30.642;2022-09-09T10:50:40;15.38;;;2.63;;
48925;SDS011;39838;59.938;30.642;2022-09-09T10:53:19;6.63;;;2.42;;
48925;SDS011;39838;59.938;30.642;2022-09-09T10:55:56;4.05;;;2.33;;
48925;SDS011;39838;59.938;30.642;2022-09-09T10:58:30;5.43;;;2.22;;
48925;SDS011;39838;59.938;30.642;2022-09-09T11:01:06;4.10;;;2.20;;
48925;SDS011;39838;59.938;30.642;2022-09-09T11:03:41;3.10;;;2.03;;
48925;SDS011;39838;59.938;30.642;2022-09-09T11:06:12;2.88;;;1.85;;
48925;SDS011;39838;59.938;30.642;2022-09-09T11:08:41;8.57;;;2.40;;
48925;SDS011;39838;59.938;30.642;2022-09-09T11:11:09;4.45;;;2.10;;
48925;SDS011;39838;59.938;30.642;2022-09-09T11:13:42;6.68;;;2.33;;
48925;SDS011;39838;59.938;30.642;2022-09-09T11:16:21;6.18;;;2.20;;
48925;SDS011;39838;59.938;30.642;2022-09-09T11:18:55;4.97;;;2.55;;
48925;SDS011;39838;59.938;30.642;2022-09-09T11:21:27;4.80;;;2.28;;
48925;SDS011;39838;59.938;30.642;2022-09-09T11:23:59;4.85;;;2.47;;
48925;SDS011;39838;59.938;30.642;2022-09-09T11:26:31;3.65;;;2.05;;
48925;SDS011;39838;59.938;30.642;2022-09-09T11:29:07;2.92;;;2.15;;
48925;SDS011;39838;59.938;30.642;2022-09-09T11:31:57;4.85;;;2.33;;
48925;SDS011;39838;59.938;30.642;2022-09-09T11:34:39;4.63;;;2.08;;
48925;SDS011;39838;59.938;30.642;2022-09-09T11:37:21;3.85;;;2.20;;
48925;SDS011;39838;59.938;30.642;2022-09-09T11:40:08;6.40;;;2.15;;
48925;SDS011;39838;59.938;30.642;2022-09-09T11:42:43;3.75;;;2.08;;
48925;SDS011;39838;59.938;30.642;2022-09-09T11:45:19;3.78;;;2.10;;
48925;SDS011;39838;59.938;30.642;2022-09-09T11:47:53;5.22;;;2.13;;
48925;SDS011;39838;59.938;30.642;2022-09-09T11:50:27;3.97;;;2.10;;
48925;SDS011;39838;59.938;30.642;2022-09-09T11:53:04;7.72;;;2.03;;
48925;SDS011;39838;59.938;30.642;2022-09-09T11:56:02;4.53;;;2.35;;
48925;SDS011;39838;59.938;30.642;2022-09-09T11:58:33;3.47;;;2.15;;
48925;SDS011;39838;59.938;30.642;2022-09-09T12:04:05;3.22;;;2.30;;
48925;SDS011;39838;59.938;30.642;2022-09-09T12:06:50;6.50;;;3.03;;
48925;SDS011;39838;59.938;30.642;2022-09-09T12:09:22;3.55;;;2.10;;
48925;SDS011;39838;59.938;30.642;2022-09-09T12:12:04;5.05;;;2.60;;
48925;SDS011;39838;59.938;30.642;2022-09-09T12:14:36;3.33;;;2.30;;
48925;SDS011;39838;59.938;30.642;2022-09-09T12:20:02;4.13;;;2.45;;
48925;SDS011;39838;59.938;30.642;2022-09-09T12:22:37;4.78;;;2.28;;
48925;SDS011;39838;59.938;30.642;2022-09-09T12:25:16;6.68;;;2.78;;
48925;SDS011;39838;59.938;30.642;2022-09-09T12:27:54;8.30;;;2.70;;
48925;SDS011;39838;59.938;30.642;2022-09-09T12:30:32;5.05;;;2.70;;
48925;SDS011;39838;59.938;30.642;2022-09-09T12:33:08;4.10;;;2.90;;
48925;SDS011;39838;59.938;30.642;2022-09-09T12:35:40;3.83;;;2.40;;
48925;SDS011;39838;59.938;30.642;2022-09-09T12:38:12;4.07;;;2.67;;
48925;SDS011;39838;59.938;30.642;2022-09-09T12:40:53;7.78;;;3.15;;
48925;SDS011;39838;59.938;30.642;2022-09-09T12:43:21;6.53;;;3.00;;
48925;SDS011;39838;59.938;30.642;2022-09-09T12:45:50;5.75;;;3.08;;
48925;SDS011;39838;59.938;30.642;2022-09-09T12:48:24;6.70;;;2.97;;
48925;SDS011;39838;59.938;30.642;2022-09-09T12:50:58;4.80;;;3.10;;
48925;SDS011;39838;59.938;30.642;2022-09-09T12:53:26;9.52;;;3.60;;
48925;SDS011;39838;59.938;30.642;2022-09-09T12:56:00;6.35;;;3.20;;
48925;SDS011;39838;59.938;30.642;2022-09-09T12:58:30;8.27;;;3.20;;
48925;SDS011;39838;59.938;30.642;2022-09-09T13:01:00;6.88;;;3.50;;
48925;SDS011;39838;59.938;30.642;2022-09-09T13:03:30;12.05;;;2.88;;
48925;SDS011;39838;59.938;30.642;2022-09-09T13:06:10;9.63;;;3.38;;
48925;SDS011;39838;59.938;30.642;2022-09-09T13:08:39;10.38;;;3.17;;
48925;SDS011;39838;59.938;30.642;2022-09-09T13:11:08;8.95;;;3.00;;
48925;SDS011;39838;59.938;30.642;2022-09-09T13:13:40;8.38;;;3.13;;
48925;SDS011;39838;59.938;30.642;2022-09-09T13:16:18;9.45;;;3.30;;
48925;SDS011;39838;59.938;30.642;2022-09-09T13:18:47;8.32;;;3.70;;
48925;SDS011;39838;59.938;30.642;2022-09-09T13:21:16;6.65;;;3.13;;
48925;SDS011;39838;59.938;30.642;2022-09-09T13:23:48;8.13;;;3.75;;
48925;SDS011;39838;59.938;30.642;2022-09-09T13:26:21;11.95;;;3.58;;
48925;SDS011;39838;59.938;30.642;2022-09-09T13:28:51;8.52;;;3.78;;
48925;SDS011;39838;59.938;30.642;2022-09-09T13:31:20;9.73;;;3.85;;
48925;SDS011;39838;59.938;30.642;2022-09-09T13:33:49;7.97;;;3.72;;
48925;SDS011;39838;59.938;30.642;2022-09-09T13:36:26;12.38;;;4.07;;
48925;SDS011;39838;59.938;30.642;2022-09-09T13:38:56;7.28;;;3.40;;
48925;SDS011;39838;59.938;30.642;2022-09-09T13:41:28;7.00;;;3.60;;
48925;SDS011;39838;59.938;30.642;2022-09-09T13:43:57;11.10;;;3.30;;
48925;SDS011;39838;59.938;30.642;2022-09-09T13:46:27;9.52;;;3.70;;
48925;SDS011;39838;59.938;30.642;2022-09-09T13:48:59;12.95;;;3.60;;
48925;SDS011;39838;59.938;30.642;2022-09-09T13:51:34;9.57;;;3.83;;
48925;SDS011;39838;59.938;30.642;2022-09-09T13:54:03;7.68;;;3.33;;
48925;SDS011;39838;59.938;30.642;2022-09-09T13:56:32;10.35;;;3.83;;
48925;SDS011;39838;59.938;30.642;2022-09-09T13:58:59;10.15;;;4.05;;
48925;SDS011;39838;59.938;30.642;2022-09-09T14:01:27;6.63;;;3.72;;
48925;SDS011;39838;59.938;30.642;2022-09-09T14:03:55;7.50;;;4.00;;
48925;SDS011;39838;59.938;30.642;2022-09-09T14:06:22;6.60;;;3.50;;
48925;SDS011;39838;59.938;30.642;2022-09-09T14:08:51;10.30;;;4.57;;
48925;SDS011;39838;59.938;30.642;2022-09-09T14:11:20;9.18;;;4.03;;
48925;SDS011;39838;59.938;30.642;2022-09-09T14:13:47;6.18;;;3.63;;
48925;SDS011;39838;59.938;30.642;2022-09-09T14:16:15;10.90;;;4.30;;
48925;SDS011;39838;59.938;30.642;2022-09-09T14:18:43;9.10;;;3.67;;
48925;SDS011;39838;59.938;30.642;2022-09-09T14:21:10;5.53;;;3.72;;
48925;SDS011;39838;59.938;30.642;2022-09-09T14:23:38;9.95;;;5.20;;
48925;SDS011;39838;59.938;30.642;2022-09-09T14:26:07;13.73;;;6.95;;
48925;SDS011;39838;59.938;30.642;2022-09-09T14:28:35;10.40;;;6.25;;
48925;SDS011;39838;59.938;30.642;2022-09-09T14:31:03;15.90;;;8.05;;
48925;SDS011;39838;59.938;30.642;2022-09-09T14:33:30;13.30;;;7.25;;
48925;SDS011;39838;59.938;30.642;2022-09-09T14:36:00;22.73;;;7.20;;
48925;SDS011;39838;59.938;30.642;2022-09-09T14:38:29;16.77;;;7.35;;
48925;SDS011;39838;59.938;30.642;2022-09-09T14:40:58;14.73;;;8.68;;
48925;SDS011;39838;59.938;30.642;2022-09-09T14:43:29;19.92;;;9.75;;
48925;SDS011;39838;59.938;30.642;2022-09-09T14:45:58;18.92;;;9.30;;
48925;SDS011;39838;59.938;30.642;2022-09-09T14:48:30;16.10;;;8.80;;
48925;SDS011;39838;59.938;30.642;2022-09-09T14:51:04;16.55;;;8.15;;
48925;SDS011;39838;59.938;30.642;2022-09-09T14:53:32;12.73;;;6.57;;
48925;SDS011;39838;59.938;30.642;2022-09-09T14:56:03;13.30;;;5.88;;
48925;SDS011;39838;59.938;30.642;2022-09-09T14:58:32;10.75;;;5.65;;
48925;SDS011;39838;59.938;30.642;2022-09-09T15:01:03;12.68;;;5.70;;
48925;SDS011;39838;59.938;30.642;2022-09-09T15:03:32;12.52;;;5.22;;